sensor_id;sensor_type;location;lat;lon;timestamp;P1;durP1;ratioP1;P2;durP2;ratioP2
10341;SDS011;5216;54.602;18.356;2024-01-30T00:00:47;28.93;;;23.70;;
10341;SDS011;5216;54.602;18.356;2024-01-30T00:03:14;27.73;;;22.17;;
10341;SDS011;5216;54.602;18.356;2024-01-30T00:05:41;30.10;;;22.47;;
10341;SDS011;5216;54.602;18.356;2024-01-30T00:08:08;30.20;;;22.83;;
10341;SDS011;5216;54.602;18.356;2024-01-30T00:10:34;28.10;;;22.37;;
10341;SDS011;5216;54.602;18.356;2024-01-30T00:13:02;27.77;;;21.70;;
10341;SDS011;5216;54.602;18.356;2024-01-30T00:15:29;26.20;;;21.43;;
10341;SDS011;5216;54.602;18.356;2024-01-30T00:17:56;25.33;;;21.27;;
10341;SDS011;5216;54.602;18.356;2024-01-30T00:20:23;26.53;;;20.67;;
10341;SDS011;5216;54.602;18.356;2024-01-30T00:22:50;25.77;;;21.50;;
10341;SDS011;5216;54.602;18.356;2024-01-30T00:25:17;22.60;;;18.50;;
10341;SDS011;5216;54.602;18.356;2024-01-30T00:27:44;23.20;;;19.60;;
10341;SDS011;5216;54.602;18.356;2024-01-30T00:30:11;24.27;;;19.77;;
10341;SDS011;5216;54.602;18.356;2024-01-30T00:32:38;25.07;;;20.63;;
10341;SDS011;5216;54.602;18.356;2024-01-30T00:35:05;26.57;;;21.10;;
10341;SDS011;5216;54.602;18.356;2024-01-30T00:37:32;25.77;;;21.00;;
10341;SDS011;5216;54.602;18.356;2024-01-30T00:39:59;26.43;;;21.90;;
10341;SDS011;5216;54.602;18.356;2024-01-30T00:42:26;27.37;;;22.47;;
10341;SDS011;5216;54.602;18.356;2024-01-30T00:44:52;33.50;;;26.80;;
10341;SDS011;5216;54.602;18.356;2024-01-30T00:47:19;36.17;;;28.20;;
10341;SDS011;5216;54.602;18.356;2024-01-30T00:49:46;33.40;;;27.50;;
10341;SDS011;5216;54.602;18.356;2024-01-30T00:52:13;32.80;;;26.20;;
10341;SDS011;5216;54.602;18.356;2024-01-30T00:54:39;31.93;;;26.77;;
10341;SDS011;5216;54.602;18.356;2024-01-30T00:57:07;31.87;;;25.97;;
10341;SDS011;5216;54.602;18.356;2024-01-30T00:59:34;33.43;;;26.33;;
10341;SDS011;5216;54.602;18.356;2024-01-30T01:02:00;33.23;;;27.03;;
10341;SDS011;5216;54.602;18.356;2024-01-30T01:04:27;32.13;;;26.63;;
10341;SDS011;5216;54.602;18.356;2024-01-30T01:06:54;33.57;;;27.37;;
10341;SDS011;5216;54.602;18.356;2024-01-30T01:09:21;34.50;;;26.83;;
10341;SDS011;5216;54.602;18.356;2024-01-30T01:11:48;33.07;;;24.93;;
10341;SDS011;5216;54.602;18.356;2024-01-30T01:14:15;32.20;;;24.57;;
10341;SDS011;5216;54.602;18.356;2024-01-30T01:16:42;28.77;;;23.50;;
10341;SDS011;5216;54.602;18.356;2024-01-30T01:19:08;30.17;;;23.53;;
10341;SDS011;5216;54.602;18.356;2024-01-30T01:21:35;30.90;;;23.40;;
10341;SDS011;5216;54.602;18.356;2024-01-30T01:24:02;27.10;;;23.13;;
10341;SDS011;5216;54.602;18.356;2024-01-30T01:26:29;28.13;;;23.17;;
10341;SDS011;5216;54.602;18.356;2024-01-30T01:28:56;27.77;;;22.80;;
10341;SDS011;5216;54.602;18.356;2024-01-30T01:31:22;29.30;;;23.07;;
10341;SDS011;5216;54.602;18.356;2024-01-30T01:33:54;28.47;;;23.10;;
10341;SDS011;5216;54.602;18.356;2024-01-30T01:36:21;28.00;;;23.90;;
10341;SDS011;5216;54.602;18.356;2024-01-30T01:38:47;28.77;;;23.67;;
10341;SDS011;5216;54.602;18.356;2024-01-30T01:41:14;32.27;;;25.70;;
10341;SDS011;5216;54.602;18.356;2024-01-30T01:43:41;30.33;;;24.87;;
10341;SDS011;5216;54.602;18.356;2024-01-30T01:46:07;29.50;;;24.40;;
10341;SDS011;5216;54.602;18.356;2024-01-30T01:48:35;28.07;;;22.57;;
10341;SDS011;5216;54.602;18.356;2024-01-30T01:51:03;31.13;;;23.67;;
10341;SDS011;5216;54.602;18.356;2024-01-30T01:53:31;27.30;;;22.27;;
10341;SDS011;5216;54.602;18.356;2024-01-30T01:55:58;26.63;;;21.40;;
10341;SDS011;5216;54.602;18.356;2024-01-30T01:58:24;28.63;;;20.97;;
10341;SDS011;5216;54.602;18.356;2024-01-30T02:00:56;24.27;;;19.93;;
10341;SDS011;5216;54.602;18.356;2024-01-30T02:03:23;29.77;;;19.70;;
10341;SDS011;5216;54.602;18.356;2024-01-30T02:05:50;23.37;;;19.87;;
10341;SDS011;5216;54.602;18.356;2024-01-30T02:08:17;24.93;;;19.67;;
10341;SDS011;5216;54.602;18.356;2024-01-30T02:10:44;25.23;;;20.43;;
10341;SDS011;5216;54.602;18.356;2024-01-30T02:13:11;24.60;;;18.73;;
10341;SDS011;5216;54.602;18.356;2024-01-30T02:15:38;21.83;;;18.50;;
10341;SDS011;5216;54.602;18.356;2024-01-30T02:18:05;21.67;;;17.63;;
10341;SDS011;5216;54.602;18.356;2024-01-30T02:20:32;20.40;;;16.63;;
10341;SDS011;5216;54.602;18.356;2024-01-30T02:23:01;21.93;;;17.00;;
10341;SDS011;5216;54.602;18.356;2024-01-30T02:25:36;20.50;;;16.80;;
10341;SDS011;5216;54.602;18.356;2024-01-30T02:28:05;19.87;;;16.93;;
10341;SDS011;5216;54.602;18.356;2024-01-30T02:30:32;21.60;;;16.80;;
10341;SDS011;5216;54.602;18.356;2024-01-30T02:32:59;20.97;;;17.10;;
10341;SDS011;5216;54.602;18.356;2024-01-30T02:35:25;19.80;;;16.27;;
10341;SDS011;5216;54.602;18.356;2024-01-30T02:37:52;22.83;;;17.50;;
10341;SDS011;5216;54.602;18.356;2024-01-30T02:40:19;21.33;;;17.83;;
10341;SDS011;5216;54.602;18.356;2024-01-30T02:42:46;22.47;;;17.73;;
10341;SDS011;5216;54.602;18.356;2024-01-30T02:45:13;22.83;;;17.47;;
10341;SDS011;5216;54.602;18.356;2024-01-30T02:47:40;20.93;;;16.67;;
10341;SDS011;5216;54.602;18.356;2024-01-30T02:50:07;19.43;;;17.17;;
10341;SDS011;5216;54.602;18.356;2024-01-30T02:52:34;21.60;;;17.53;;
10341;SDS011;5216;54.602;18.356;2024-01-30T02:55:01;21.33;;;17.57;;
10341;SDS011;5216;54.602;18.356;2024-01-30T02:57:28;22.83;;;17.70;;
10341;SDS011;5216;54.602;18.356;2024-01-30T02:59:55;23.23;;;16.80;;
10341;SDS011;5216;54.602;18.356;2024-01-30T03:02:22;19.80;;;16.63;;
10341;SDS011;5216;54.602;18.356;2024-01-30T03:04:49;18.30;;;15.57;;
10341;SDS011;5216;54.602;18.356;2024-01-30T03:07:16;18.83;;;15.13;;
10341;SDS011;5216;54.602;18.356;2024-01-30T03:09:43;19.20;;;15.70;;
10341;SDS011;5216;54.602;18.356;2024-01-30T03:12:10;17.70;;;14.83;;
10341;SDS011;5216;54.602;18.356;2024-01-30T03:14:37;19.83;;;15.80;;
10341;SDS011;5216;54.602;18.356;2024-01-30T03:17:04;18.33;;;14.67;;
10341;SDS011;5216;54.602;18.356;2024-01-30T03:19:31;17.50;;;13.87;;
10341;SDS011;5216;54.602;18.356;2024-01-30T03:21:58;16.73;;;14.40;;
10341;SDS011;5216;54.602;18.356;2024-01-30T03:24:25;18.60;;;14.47;;
10341;SDS011;5216;54.602;18.356;2024-01-30T03:26:52;16.43;;;13.80;;
10341;SDS011;5216;54.602;18.356;2024-01-30T03:29:19;21.70;;;16.23;;
10341;SDS011;5216;54.602;18.356;2024-01-30T03:31:46;21.03;;;15.97;;
10341;SDS011;5216;54.602;18.356;2024-01-30T03:34:13;20.53;;;15.23;;
10341;SDS011;5216;54.602;18.356;2024-01-30T03:36:40;16.93;;;13.23;;
10341;SDS011;5216;54.602;18.356;2024-01-30T03:39:06;17.00;;;13.60;;
10341;SDS011;5216;54.602;18.356;2024-01-30T03:41:33;17.57;;;13.47;;
10341;SDS011;5216;54.602;18.356;2024-01-30T03:44:00;15.23;;;12.70;;
10341;SDS011;5216;54.602;18.356;2024-01-30T03:46:27;16.90;;;12.63;;
10341;SDS011;5216;54.602;18.356;2024-01-30T03:48:53;14.43;;;12.60;;
10341;SDS011;5216;54.602;18.356;2024-01-30T03:51:20;13.67;;;11.60;;
10341;SDS011;5216;54.602;18.356;2024-01-30T03:53:47;14.87;;;12.07;;
10341;SDS011;5216;54.602;18.356;2024-01-30T03:56:13;14.17;;;11.40;;
10341;SDS011;5216;54.602;18.356;2024-01-30T03:58:40;13.73;;;11.67;;
10341;SDS011;5216;54.602;18.356;2024-01-30T04:01:07;14.60;;;12.40;;
10341;SDS011;5216;54.602;18.356;2024-01-30T04:03:39;14.67;;;12.27;;
10341;SDS011;5216;54.602;18.356;2024-01-30T04:06:06;14.63;;;12.27;;
10341;SDS011;5216;54.602;18.356;2024-01-30T04:08:32;15.77;;;13.33;;
10341;SDS011;5216;54.602;18.356;2024-01-30T04:11:03;16.43;;;13.43;;
10341;SDS011;5216;54.602;18.356;2024-01-30T04:13:33;16.83;;;12.77;;
10341;SDS011;5216;54.602;18.356;2024-01-30T04:16:00;14.87;;;13.13;;
10341;SDS011;5216;54.602;18.356;2024-01-30T04:18:30;16.67;;;13.83;;
10341;SDS011;5216;54.602;18.356;2024-01-30T04:20:57;16.80;;;13.50;;
10341;SDS011;5216;54.602;18.356;2024-01-30T04:23:23;16.33;;;13.27;;
10341;SDS011;5216;54.602;18.356;2024-01-30T04:25:50;15.60;;;13.73;;
10341;SDS011;5216;54.602;18.356;2024-01-30T04:28:17;16.70;;;14.23;;
10341;SDS011;5216;54.602;18.356;2024-01-30T04:30:44;15.87;;;13.83;;
10341;SDS011;5216;54.602;18.356;2024-01-30T04:33:10;15.93;;;13.17;;
10341;SDS011;5216;54.602;18.356;2024-01-30T04:35:37;17.90;;;14.03;;
10341;SDS011;5216;54.602;18.356;2024-01-30T04:38:04;19.70;;;13.77;;
10341;SDS011;5216;54.602;18.356;2024-01-30T04:40:31;17.00;;;13.47;;
10341;SDS011;5216;54.602;18.356;2024-01-30T04:42:58;24.37;;;13.73;;
10341;SDS011;5216;54.602;18.356;2024-01-30T04:45:24;18.50;;;13.60;;
10341;SDS011;5216;54.602;18.356;2024-01-30T04:47:51;19.63;;;13.63;;
10341;SDS011;5216;54.602;18.356;2024-01-30T04:50:18;15.50;;;13.10;;
10341;SDS011;5216;54.602;18.356;2024-01-30T04:52:45;17.57;;;13.43;;
10341;SDS011;5216;54.602;18.356;2024-01-30T04:55:12;15.03;;;13.07;;
10341;SDS011;5216;54.602;18.356;2024-01-30T04:57:38;19.47;;;14.57;;
10341;SDS011;5216;54.602;18.356;2024-01-30T05:00:06;15.20;;;13.53;;
10341;SDS011;5216;54.602;18.356;2024-01-30T05:02:33;18.07;;;15.17;;
10341;SDS011;5216;54.602;18.356;2024-01-30T05:04:59;18.53;;;15.80;;
10341;SDS011;5216;54.602;18.356;2024-01-30T05:07:26;18.53;;;15.27;;
10341;SDS011;5216;54.602;18.356;2024-01-30T05:09:53;16.80;;;15.00;;
10341;SDS011;5216;54.602;18.356;2024-01-30T05:12:24;17.30;;;14.63;;
10341;SDS011;5216;54.602;18.356;2024-01-30T05:14:51;16.83;;;14.97;;
10341;SDS011;5216;54.602;18.356;2024-01-30T05:17:18;17.20;;;15.10;;
10341;SDS011;5216;54.602;18.356;2024-01-30T05:19:45;17.63;;;15.00;;
10341;SDS011;5216;54.602;18.356;2024-01-30T05:22:12;18.03;;;13.87;;
10341;SDS011;5216;54.602;18.356;2024-01-30T05:24:42;17.53;;;14.60;;
10341;SDS011;5216;54.602;18.356;2024-01-30T05:27:09;19.40;;;16.13;;
10341;SDS011;5216;54.602;18.356;2024-01-30T05:29:36;21.27;;;16.57;;
10341;SDS011;5216;54.602;18.356;2024-01-30T05:32:03;20.63;;;15.87;;
10341;SDS011;5216;54.602;18.356;2024-01-30T05:34:32;19.53;;;16.07;;
10341;SDS011;5216;54.602;18.356;2024-01-30T05:36:59;22.03;;;16.53;;
10341;SDS011;5216;54.602;18.356;2024-01-30T05:39:26;19.70;;;15.63;;
10341;SDS011;5216;54.602;18.356;2024-01-30T05:41:53;22.50;;;17.03;;
10341;SDS011;5216;54.602;18.356;2024-01-30T05:44:19;21.50;;;17.07;;
10341;SDS011;5216;54.602;18.356;2024-01-30T05:46:46;23.07;;;18.00;;
10341;SDS011;5216;54.602;18.356;2024-01-30T05:49:13;23.47;;;18.17;;
10341;SDS011;5216;54.602;18.356;2024-01-30T05:51:39;24.93;;;18.93;;
10341;SDS011;5216;54.602;18.356;2024-01-30T05:54:06;29.90;;;23.67;;
10341;SDS011;5216;54.602;18.356;2024-01-30T05:56:33;32.90;;;24.80;;
10341;SDS011;5216;54.602;18.356;2024-01-30T05:59:00;31.47;;;25.33;;
10341;SDS011;5216;54.602;18.356;2024-01-30T06:01:26;30.53;;;23.77;;
10341;SDS011;5216;54.602;18.356;2024-01-30T06:03:53;28.07;;;22.87;;
10341;SDS011;5216;54.602;18.356;2024-01-30T06:06:20;26.27;;;21.53;;
10341;SDS011;5216;54.602;18.356;2024-01-30T06:08:47;62.03;;;44.43;;
10341;SDS011;5216;54.602;18.356;2024-01-30T06:11:14;27.03;;;20.03;;
10341;SDS011;5216;54.602;18.356;2024-01-30T06:13:41;22.20;;;17.70;;
10341;SDS011;5216;54.602;18.356;2024-01-30T06:16:11;26.20;;;19.10;;
10341;SDS011;5216;54.602;18.356;2024-01-30T06:18:38;24.13;;;19.17;;
10341;SDS011;5216;54.602;18.356;2024-01-30T06:21:05;22.23;;;17.60;;
10341;SDS011;5216;54.602;18.356;2024-01-30T06:23:33;22.63;;;18.77;;
10341;SDS011;5216;54.602;18.356;2024-01-30T06:26:00;24.97;;;18.40;;
10341;SDS011;5216;54.602;18.356;2024-01-30T06:28:27;27.40;;;20.50;;
10341;SDS011;5216;54.602;18.356;2024-01-30T06:30:54;27.40;;;19.80;;
10341;SDS011;5216;54.602;18.356;2024-01-30T06:33:21;28.47;;;19.80;;
10341;SDS011;5216;54.602;18.356;2024-01-30T06:35:47;25.90;;;19.67;;
10341;SDS011;5216;54.602;18.356;2024-01-30T06:38:14;29.13;;;20.90;;
10341;SDS011;5216;54.602;18.356;2024-01-30T06:40:42;32.57;;;21.97;;
10341;SDS011;5216;54.602;18.356;2024-01-30T06:43:09;32.67;;;22.60;;
10341;SDS011;5216;54.602;18.356;2024-01-30T06:45:35;29.93;;;21.93;;
10341;SDS011;5216;54.602;18.356;2024-01-30T06:48:02;33.40;;;22.17;;
10341;SDS011;5216;54.602;18.356;2024-01-30T06:50:29;30.13;;;21.40;;
10341;SDS011;5216;54.602;18.356;2024-01-30T06:52:56;32.03;;;21.53;;
10341;SDS011;5216;54.602;18.356;2024-01-30T06:55:22;30.73;;;21.37;;
10341;SDS011;5216;54.602;18.356;2024-01-30T06:57:49;32.83;;;23.37;;
10341;SDS011;5216;54.602;18.356;2024-01-30T07:00:17;37.77;;;28.07;;
10341;SDS011;5216;54.602;18.356;2024-01-30T07:02:46;37.13;;;26.47;;
10341;SDS011;5216;54.602;18.356;2024-01-30T07:05:12;39.20;;;29.47;;
10341;SDS011;5216;54.602;18.356;2024-01-30T07:07:40;50.30;;;34.23;;
10341;SDS011;5216;54.602;18.356;2024-01-30T07:10:07;47.67;;;34.23;;
10341;SDS011;5216;54.602;18.356;2024-01-30T07:12:34;50.00;;;34.87;;
10341;SDS011;5216;54.602;18.356;2024-01-30T07:15:01;46.87;;;34.27;;
10341;SDS011;5216;54.602;18.356;2024-01-30T07:17:29;50.17;;;35.90;;
10341;SDS011;5216;54.602;18.356;2024-01-30T07:19:56;46.63;;;33.20;;
10341;SDS011;5216;54.602;18.356;2024-01-30T07:22:23;41.67;;;30.40;;
10341;SDS011;5216;54.602;18.356;2024-01-30T07:24:49;44.07;;;31.30;;
10341;SDS011;5216;54.602;18.356;2024-01-30T07:27:19;38.53;;;29.67;;
10341;SDS011;5216;54.602;18.356;2024-01-30T07:29:48;40.67;;;31.13;;
10341;SDS011;5216;54.602;18.356;2024-01-30T07:32:15;47.87;;;39.10;;
10341;SDS011;5216;54.602;18.356;2024-01-30T07:34:42;44.83;;;34.87;;
10341;SDS011;5216;54.602;18.356;2024-01-30T07:37:28;39.80;;;32.70;;
10341;SDS011;5216;54.602;18.356;2024-01-30T07:39:55;46.93;;;37.90;;
10341;SDS011;5216;54.602;18.356;2024-01-30T07:42:22;49.23;;;40.13;;
10341;SDS011;5216;54.602;18.356;2024-01-30T07:44:48;42.70;;;35.83;;
10341;SDS011;5216;54.602;18.356;2024-01-30T07:47:15;31.20;;;26.03;;
10341;SDS011;5216;54.602;18.356;2024-01-30T07:49:42;30.77;;;25.47;;
10341;SDS011;5216;54.602;18.356;2024-01-30T07:52:09;32.67;;;25.83;;
10341;SDS011;5216;54.602;18.356;2024-01-30T07:54:38;35.17;;;28.83;;
10341;SDS011;5216;54.602;18.356;2024-01-30T07:57:08;43.57;;;38.90;;
10341;SDS011;5216;54.602;18.356;2024-01-30T07:59:35;36.83;;;28.57;;
10341;SDS011;5216;54.602;18.356;2024-01-30T08:02:01;29.83;;;25.07;;
10341;SDS011;5216;54.602;18.356;2024-01-30T08:04:29;26.33;;;22.80;;
10341;SDS011;5216;54.602;18.356;2024-01-30T08:06:55;25.17;;;22.00;;
10341;SDS011;5216;54.602;18.356;2024-01-30T08:09:22;26.00;;;22.97;;
10341;SDS011;5216;54.602;18.356;2024-01-30T08:11:49;25.67;;;22.77;;
10341;SDS011;5216;54.602;18.356;2024-01-30T08:14:16;26.27;;;22.87;;
10341;SDS011;5216;54.602;18.356;2024-01-30T08:16:42;26.60;;;23.80;;
10341;SDS011;5216;54.602;18.356;2024-01-30T08:19:09;29.87;;;24.03;;
10341;SDS011;5216;54.602;18.356;2024-01-30T08:21:36;32.27;;;26.13;;
10341;SDS011;5216;54.602;18.356;2024-01-30T08:24:05;49.70;;;42.43;;
10341;SDS011;5216;54.602;18.356;2024-01-30T08:26:33;57.27;;;50.03;;
10341;SDS011;5216;54.602;18.356;2024-01-30T08:29:00;40.27;;;35.90;;
10341;SDS011;5216;54.602;18.356;2024-01-30T08:31:28;39.50;;;30.33;;
10341;SDS011;5216;54.602;18.356;2024-01-30T08:33:55;32.53;;;25.37;;
10341;SDS011;5216;54.602;18.356;2024-01-30T08:36:22;29.07;;;23.20;;
10341;SDS011;5216;54.602;18.356;2024-01-30T08:38:49;30.27;;;23.70;;
10341;SDS011;5216;54.602;18.356;2024-01-30T08:41:16;28.60;;;23.60;;
10341;SDS011;5216;54.602;18.356;2024-01-30T08:43:42;26.23;;;21.97;;
10341;SDS011;5216;54.602;18.356;2024-01-30T08:46:11;31.83;;;23.77;;
10341;SDS011;5216;54.602;18.356;2024-01-30T08:48:38;29.47;;;22.73;;
10341;SDS011;5216;54.602;18.356;2024-01-30T08:51:05;29.90;;;24.90;;
10341;SDS011;5216;54.602;18.356;2024-01-30T08:53:35;35.00;;;26.87;;
10341;SDS011;5216;54.602;18.356;2024-01-30T08:56:02;49.50;;;35.00;;
10341;SDS011;5216;54.602;18.356;2024-01-30T08:58:30;36.00;;;28.23;;
10341;SDS011;5216;54.602;18.356;2024-01-30T09:00:57;60.17;;;42.40;;
10341;SDS011;5216;54.602;18.356;2024-01-30T09:03:24;49.23;;;35.83;;
10341;SDS011;5216;54.602;18.356;2024-01-30T09:05:51;38.80;;;31.03;;
10341;SDS011;5216;54.602;18.356;2024-01-30T09:08:18;42.37;;;30.80;;
10341;SDS011;5216;54.602;18.356;2024-01-30T09:10:45;30.87;;;24.63;;
10341;SDS011;5216;54.602;18.356;2024-01-30T09:13:12;25.90;;;21.07;;
10341;SDS011;5216;54.602;18.356;2024-01-30T09:15:39;31.50;;;24.60;;
10341;SDS011;5216;54.602;18.356;2024-01-30T09:18:06;28.20;;;22.87;;
10341;SDS011;5216;54.602;18.356;2024-01-30T09:20:33;26.30;;;22.70;;
10341;SDS011;5216;54.602;18.356;2024-01-30T09:23:00;27.50;;;22.83;;
10341;SDS011;5216;54.602;18.356;2024-01-30T09:25:27;28.33;;;22.00;;
10341;SDS011;5216;54.602;18.356;2024-01-30T09:27:54;37.80;;;27.67;;
10341;SDS011;5216;54.602;18.356;2024-01-30T09:30:23;26.60;;;21.87;;
10341;SDS011;5216;54.602;18.356;2024-01-30T09:32:50;23.90;;;20.27;;
10341;SDS011;5216;54.602;18.356;2024-01-30T09:35:17;22.33;;;18.17;;
10341;SDS011;5216;54.602;18.356;2024-01-30T09:37:44;24.07;;;19.20;;
10341;SDS011;5216;54.602;18.356;2024-01-30T09:40:10;25.80;;;19.17;;
10341;SDS011;5216;54.602;18.356;2024-01-30T09:42:38;25.27;;;19.03;;
10341;SDS011;5216;54.602;18.356;2024-01-30T09:45:06;25.23;;;18.60;;
10341;SDS011;5216;54.602;18.356;2024-01-30T09:47:39;26.13;;;19.77;;
10341;SDS011;5216;54.602;18.356;2024-01-30T09:50:10;25.40;;;19.63;;
10341;SDS011;5216;54.602;18.356;2024-01-30T09:52:39;24.37;;;19.80;;
10341;SDS011;5216;54.602;18.356;2024-01-30T09:55:07;27.00;;;21.00;;
10341;SDS011;5216;54.602;18.356;2024-01-30T09:57:34;26.83;;;21.07;;
10341;SDS011;5216;54.602;18.356;2024-01-30T10:00:02;28.07;;;22.20;;
10341;SDS011;5216;54.602;18.356;2024-01-30T10:02:36;26.60;;;21.97;;
10341;SDS011;5216;54.602;18.356;2024-01-30T10:05:04;29.43;;;21.37;;
10341;SDS011;5216;54.602;18.356;2024-01-30T10:07:31;26.87;;;20.87;;
10341;SDS011;5216;54.602;18.356;2024-01-30T10:09:58;26.33;;;20.20;;
10341;SDS011;5216;54.602;18.356;2024-01-30T10:12:29;24.60;;;19.70;;
10341;SDS011;5216;54.602;18.356;2024-01-30T10:14:56;25.77;;;19.57;;
10341;SDS011;5216;54.602;18.356;2024-01-30T10:17:24;24.70;;;20.07;;
10341;SDS011;5216;54.602;18.356;2024-01-30T10:19:59;22.30;;;18.53;;
10341;SDS011;5216;54.602;18.356;2024-01-30T10:22:27;22.47;;;18.10;;
10341;SDS011;5216;54.602;18.356;2024-01-30T10:24:54;26.27;;;18.03;;
10341;SDS011;5216;54.602;18.356;2024-01-30T10:27:27;25.97;;;18.23;;
10341;SDS011;5216;54.602;18.356;2024-01-30T10:29:56;24.63;;;19.13;;
10341;SDS011;5216;54.602;18.356;2024-01-30T10:32:27;23.63;;;19.20;;
10341;SDS011;5216;54.602;18.356;2024-01-30T10:34:54;24.23;;;20.10;;
10341;SDS011;5216;54.602;18.356;2024-01-30T10:37:21;30.47;;;22.63;;
10341;SDS011;5216;54.602;18.356;2024-01-30T10:39:54;32.73;;;23.33;;
10341;SDS011;5216;54.602;18.356;2024-01-30T10:42:26;39.17;;;29.27;;
10341;SDS011;5216;54.602;18.356;2024-01-30T10:44:59;39.13;;;30.80;;
10341;SDS011;5216;54.602;18.356;2024-01-30T10:47:31;40.67;;;31.83;;
10341;SDS011;5216;54.602;18.356;2024-01-30T10:50:01;35.83;;;27.17;;
10341;SDS011;5216;54.602;18.356;2024-01-30T10:52:29;30.87;;;24.47;;
10341;SDS011;5216;54.602;18.356;2024-01-30T10:54:58;27.57;;;23.17;;
10341;SDS011;5216;54.602;18.356;2024-01-30T10:57:26;28.00;;;21.57;;
10341;SDS011;5216;54.602;18.356;2024-01-30T10:59:55;26.40;;;19.93;;
10341;SDS011;5216;54.602;18.356;2024-01-30T11:02:24;25.37;;;18.90;;
10341;SDS011;5216;54.602;18.356;2024-01-30T11:05:27;24.97;;;19.17;;
10341;SDS011;5216;54.602;18.356;2024-01-30T11:08:13;29.17;;;20.07;;
10341;SDS011;5216;54.602;18.356;2024-01-30T11:10:49;25.07;;;18.83;;
10341;SDS011;5216;54.602;18.356;2024-01-30T11:13:16;28.53;;;18.23;;
10341;SDS011;5216;54.602;18.356;2024-01-30T11:15:42;21.50;;;16.57;;
10341;SDS011;5216;54.602;18.356;2024-01-30T11:18:09;19.03;;;15.10;;
10341;SDS011;5216;54.602;18.356;2024-01-30T11:20:37;18.30;;;15.77;;
10341;SDS011;5216;54.602;18.356;2024-01-30T11:23:03;22.67;;;15.93;;
10341;SDS011;5216;54.602;18.356;2024-01-30T11:25:33;19.93;;;16.67;;
10341;SDS011;5216;54.602;18.356;2024-01-30T11:28:01;24.00;;;17.27;;
10341;SDS011;5216;54.602;18.356;2024-01-30T11:30:28;22.20;;;16.30;;
10341;SDS011;5216;54.602;18.356;2024-01-30T11:33:07;21.50;;;16.57;;
10341;SDS011;5216;54.602;18.356;2024-01-30T11:35:38;24.77;;;16.87;;
10341;SDS011;5216;54.602;18.356;2024-01-30T11:38:10;22.60;;;15.83;;
10341;SDS011;5216;54.602;18.356;2024-01-30T11:40:40;20.33;;;15.27;;
10341;SDS011;5216;54.602;18.356;2024-01-30T11:43:08;20.63;;;15.17;;
10341;SDS011;5216;54.602;18.356;2024-01-30T11:45:38;18.00;;;13.83;;
10341;SDS011;5216;54.602;18.356;2024-01-30T11:48:06;18.07;;;14.13;;
10341;SDS011;5216;54.602;18.356;2024-01-30T11:50:33;18.17;;;13.47;;
10341;SDS011;5216;54.602;18.356;2024-01-30T11:53:01;18.97;;;13.70;;
10341;SDS011;5216;54.602;18.356;2024-01-30T11:55:31;18.63;;;12.77;;
10341;SDS011;5216;54.602;18.356;2024-01-30T11:58:01;19.40;;;13.70;;
10341;SDS011;5216;54.602;18.356;2024-01-30T12:00:29;20.87;;;14.53;;
10341;SDS011;5216;54.602;18.356;2024-01-30T12:02:58;18.00;;;14.43;;
10341;SDS011;5216;54.602;18.356;2024-01-30T12:05:28;20.07;;;15.30;;
10341;SDS011;5216;54.602;18.356;2024-01-30T12:07:56;24.90;;;16.03;;
10341;SDS011;5216;54.602;18.356;2024-01-30T12:10:27;24.97;;;15.93;;
10341;SDS011;5216;54.602;18.356;2024-01-30T12:12:54;20.80;;;15.37;;
10341;SDS011;5216;54.602;18.356;2024-01-30T12:15:21;17.97;;;13.80;;
10341;SDS011;5216;54.602;18.356;2024-01-30T12:17:49;17.87;;;13.07;;
10341;SDS011;5216;54.602;18.356;2024-01-30T12:20:19;18.40;;;13.03;;
10341;SDS011;5216;54.602;18.356;2024-01-30T12:22:48;19.37;;;13.93;;
10341;SDS011;5216;54.602;18.356;2024-01-30T12:25:16;18.47;;;14.43;;
10341;SDS011;5216;54.602;18.356;2024-01-30T12:27:48;18.03;;;13.57;;
10341;SDS011;5216;54.602;18.356;2024-01-30T12:30:19;17.83;;;14.30;;
10341;SDS011;5216;54.602;18.356;2024-01-30T12:32:51;22.00;;;15.43;;
10341;SDS011;5216;54.602;18.356;2024-01-30T12:35:18;23.30;;;16.03;;
10341;SDS011;5216;54.602;18.356;2024-01-30T12:37:48;24.43;;;17.90;;
10341;SDS011;5216;54.602;18.356;2024-01-30T12:40:18;26.73;;;18.33;;
10341;SDS011;5216;54.602;18.356;2024-01-30T12:42:46;25.47;;;17.60;;
10341;SDS011;5216;54.602;18.356;2024-01-30T12:45:17;22.47;;;16.93;;
10341;SDS011;5216;54.602;18.356;2024-01-30T12:47:49;22.90;;;17.80;;
10341;SDS011;5216;54.602;18.356;2024-01-30T12:50:16;27.40;;;19.43;;
10341;SDS011;5216;54.602;18.356;2024-01-30T12:52:43;28.13;;;20.50;;
10341;SDS011;5216;54.602;18.356;2024-01-30T12:55:15;27.40;;;20.07;;
10341;SDS011;5216;54.602;18.356;2024-01-30T12:57:42;30.50;;;20.60;;
10341;SDS011;5216;54.602;18.356;2024-01-30T13:00:09;29.03;;;20.33;;
10341;SDS011;5216;54.602;18.356;2024-01-30T13:02:36;32.63;;;21.87;;
10341;SDS011;5216;54.602;18.356;2024-01-30T13:05:03;31.73;;;23.20;;
10341;SDS011;5216;54.602;18.356;2024-01-30T13:07:31;31.17;;;23.00;;
10341;SDS011;5216;54.602;18.356;2024-01-30T13:09:58;31.07;;;22.30;;
10341;SDS011;5216;54.602;18.356;2024-01-30T13:12:30;29.10;;;21.70;;
10341;SDS011;5216;54.602;18.356;2024-01-30T13:15:00;34.30;;;22.10;;
10341;SDS011;5216;54.602;18.356;2024-01-30T13:17:27;31.87;;;23.40;;
10341;SDS011;5216;54.602;18.356;2024-01-30T13:19:55;35.27;;;24.60;;
10341;SDS011;5216;54.602;18.356;2024-01-30T13:22:27;35.07;;;25.83;;
10341;SDS011;5216;54.602;18.356;2024-01-30T13:24:54;31.07;;;24.47;;
10341;SDS011;5216;54.602;18.356;2024-01-30T13:27:21;47.67;;;34.97;;
10341;SDS011;5216;54.602;18.356;2024-01-30T13:29:48;42.43;;;32.23;;
10341;SDS011;5216;54.602;18.356;2024-01-30T13:32:15;38.53;;;27.33;;
10341;SDS011;5216;54.602;18.356;2024-01-30T13:34:42;33.47;;;25.83;;
10341;SDS011;5216;54.602;18.356;2024-01-30T13:37:09;33.87;;;24.90;;
10341;SDS011;5216;54.602;18.356;2024-01-30T13:39:37;38.10;;;26.37;;
10341;SDS011;5216;54.602;18.356;2024-01-30T13:42:05;36.80;;;26.10;;
10341;SDS011;5216;54.602;18.356;2024-01-30T13:44:32;36.37;;;26.60;;
10341;SDS011;5216;54.602;18.356;2024-01-30T13:47:02;40.43;;;27.37;;
10341;SDS011;5216;54.602;18.356;2024-01-30T13:49:35;41.60;;;26.17;;
10341;SDS011;5216;54.602;18.356;2024-01-30T13:52:01;42.77;;;26.43;;
10341;SDS011;5216;54.602;18.356;2024-01-30T13:54:32;31.00;;;22.50;;
10341;SDS011;5216;54.602;18.356;2024-01-30T13:56:59;19.17;;;15.93;;
10341;SDS011;5216;54.602;18.356;2024-01-30T13:59:26;14.27;;;11.57;;
10341;SDS011;5216;54.602;18.356;2024-01-30T14:01:52;14.03;;;12.00;;
10341;SDS011;5216;54.602;18.356;2024-01-30T14:04:19;12.33;;;11.03;;
10341;SDS011;5216;54.602;18.356;2024-01-30T14:06:46;19.17;;;12.97;;
10341;SDS011;5216;54.602;18.356;2024-01-30T14:09:25;15.93;;;11.97;;
10341;SDS011;5216;54.602;18.356;2024-01-30T14:11:52;11.73;;;10.50;;
10341;SDS011;5216;54.602;18.356;2024-01-30T14:14:21;13.70;;;11.97;;
10341;SDS011;5216;54.602;18.356;2024-01-30T14:16:48;14.10;;;11.00;;
10341;SDS011;5216;54.602;18.356;2024-01-30T14:19:15;15.03;;;12.83;;
10341;SDS011;5216;54.602;18.356;2024-01-30T14:21:41;14.57;;;12.37;;
10341;SDS011;5216;54.602;18.356;2024-01-30T14:24:10;16.63;;;13.53;;